.
WxDataArchive / Data Records for 2013-02-20
2013-02-19 February 2013 2013-02-21

Data Records for Wednesday, 20 February 2013

Time	Temp	Chill	HIndex	Humid	Dewpt	 Wind 	HiWind	WindDir	Rain 	Barom 
-----	----	-----	------	-----	-----	------	------	-------	-----	----- 
00:00	15.7	15.7	15.7	66	6.4	2	6	248	0.00	30.095 
00:05	15.7	15.7	15.7	66	6.4	2	6	248	0.00	30.095 
00:10	15.7	15.7	15.7	66	6.4	2	5	248	0.00	30.095 
00:15	15.7	15.7	15.7	67	6.7	2	6	248	0.00	30.098 
00:20	15.7	15.7	15.7	67	6.7	2	6	248	0.00	30.098 
00:25	15.9	15.9	15.9	67	6.9	2	5	248	0.00	30.098 
00:30	15.9	15.9	15.9	68	7.2	3	7	248	0.00	30.099 
00:35	15.9	15.9	15.9	68	7.2	2	4	248	0.00	30.099 
00:40	15.9	15.9	15.9	68	7.2	2	4	248	0.00	30.099 
00:45	15.9	15.9	15.9	68	7.2	2	5	270	0.00	30.103 
00:50	15.9	15.9	15.9	69	7.6	3	9	248	0.00	30.103 
00:55	15.9	15.9	15.9	69	7.6	2	7	248	0.00	30.103 
01:00	15.9	15.9	15.9	69	7.6	3	7	248	0.00	30.107 
01:05	15.9	15.9	15.9	69	7.6	2	5	248	0.00	30.107 
01:10	15.9	15.9	15.9	69	7.6	2	7	248	0.00	30.107 
01:15	15.9	15.9	15.9	69	7.6	2	5	248	0.00	30.112 
01:20	15.9	15.9	15.9	69	7.6	2	5	248	0.00	30.112 
01:25	15.9	15.9	15.9	69	7.6	2	5	270	0.00	30.112 
01:30	15.9	15.9	15.9	69	7.6	2	5	248	0.00	30.115 
01:35	15.9	15.9	15.9	70	7.9	2	5	270	0.00	30.115 
01:40	15.9	15.9	15.9	70	7.9	3	5	270	0.00	30.115 
01:45	15.9	15.9	15.9	70	7.9	2	5	248	0.00	30.119 
01:50	15.9	15.9	15.9	70	7.9	2	4	270	0.00	30.119 
01:55	15.9	15.9	15.9	70	7.9	2	4	248	0.00	30.119 
02:00	15.9	15.9	15.9	69	7.6	3	5	248	0.00	30.122 
02:05	15.9	15.9	15.9	70	7.9	2	5	270	0.00	30.122 
02:10	15.9	15.9	15.9	69	7.6	3	5	270	0.00	30.122 
02:15	15.9	15.9	15.9	69	7.6	2	5	248	0.00	30.128 
02:20	16.1	16.1	16.1	69	7.8	2	5	248	0.00	30.128 
02:25	16.1	16.1	16.1	69	7.8	3	5	270	0.00	30.128 
02:30	16.1	16.1	16.1	69	7.8	2	6	248	0.00	30.131 
02:35	16.1	16.1	16.1	69	7.8	3	7	270	0.00	30.131 
02:40	15.9	15.9	15.9	69	7.6	3	6	248	0.00	30.131 
02:45	15.9	15.9	15.9	69	7.6	2	5	248	0.00	30.133 
02:50	15.7	15.7	15.7	69	7.4	2	5	248	0.00	30.133 
02:55	15.7	15.7	15.7	69	7.4	2	5	248	0.00	30.133 
03:00	15.7	15.7	15.7	69	7.4	1	3	248	0.00	30.135 
03:05	15.7	15.7	15.7	69	7.4	2	5	270	0.00	30.135 
03:10	15.7	15.7	15.7	69	7.4	2	5	270	0.00	30.135 
03:15	15.9	15.9	15.9	69	7.6	3	6	270	0.00	30.138 
03:20	15.9	15.9	15.9	69	7.6	2	6	248	0.00	30.138 
03:25	15.9	15.9	15.9	69	7.6	3	7	248	0.00	30.138 
03:30	15.9	15.9	15.9	69	7.6	3	6	270	0.00	30.144 
03:35	15.9	15.9	15.9	69	7.6	3	5	248	0.00	30.144 
03:40	15.9	15.9	15.9	69	7.6	3	7	248	0.00	30.144 
03:45	15.9	15.9	15.9	69	7.6	2	4	248	0.00	30.147 
03:50	15.9	15.9	15.9	69	7.6	2	4	248	0.00	30.147 
03:55	15.7	15.7	15.7	69	7.4	3	9	270	0.00	30.147 
04:00	15.6	15.6	15.6	69	7.3	2	5	270	0.00	30.149 
04:05	15.6	15.6	15.6	70	7.6	2	5	248	0.00	30.149 
04:10	15.6	15.6	15.6	70	7.6	2	5	248	0.00	30.149 
04:15	15.6	15.6	15.6	71	7.9	2	6	248	0.00	30.150 
04:20	15.6	15.6	15.6	70	7.6	3	5	270	0.00	30.150 
04:25	15.7	15.7	15.7	70	7.7	2	4	248	0.00	30.150 
04:30	15.7	15.7	15.7	70	7.7	2	4	248	0.00	30.155 
04:35	15.7	15.7	15.7	70	7.7	2	5	270	0.00	30.155 
04:40	15.6	15.6	15.6	70	7.6	2	6	270	0.00	30.155 
04:45	15.6	15.6	15.6	70	7.6	2	5	270	0.00	30.153 
04:50	15.6	15.6	15.6	70	7.6	2	5	270	0.00	30.153 
04:55	15.6	15.6	15.6	70	7.6	3	6	270	0.00	30.153 
05:00	15.6	15.6	15.6	70	7.6	1	3	248	0.00	30.161 
05:05	15.6	15.6	15.6	70	7.6	3	7	248	0.00	30.161 
05:10	15.6	15.6	15.6	70	7.6	3	14	270	0.00	30.161 
05:15	15.6	15.6	15.6	70	7.6	3	6	270	0.00	30.170 
05:20	15.6	15.6	15.6	70	7.6	2	6	248	0.00	30.170 
05:25	15.6	15.6	15.6	70	7.6	2	6	248	0.00	30.170 
05:30	15.6	15.6	15.6	70	7.6	2	6	248	0.00	30.175 
05:35	15.6	15.6	15.6	70	7.6	3	5	248	0.00	30.175 
05:40	15.4	15.4	15.4	70	7.4	2	5	270	0.00	30.175 
05:45	15.4	15.4	15.4	70	7.4	2	7	248	0.00	30.184 
05:50	15.4	15.4	15.4	70	7.4	2	5	248	0.00	30.184 
05:55	15.4	15.4	15.4	71	7.7	2	4	270	0.00	30.184 
06:00	15.2	15.2	15.2	70	7.2	3	7	270	0.00	30.188 
06:05	15.1	15.1	15.1	70	7.1	2	6	270	0.00	30.188 
06:10	15.1	15.1	15.1	70	7.1	3	6	270	0.00	30.188 
06:15	14.9	14.9	14.9	70	6.9	3	6	248	0.00	30.197 
06:20	14.8	14.8	14.8	70	6.8	2	6	248	0.00	30.197 
06:25	14.6	14.6	14.6	70	6.6	3	6	270	0.00	30.197 
06:30	14.4	14.4	14.4	71	6.7	2	7	248	0.00	30.198 
06:35	14.3	14.3	14.3	71	6.6	2	4	248	0.00	30.198 
06:40	14.3	14.3	14.3	71	6.6	2	4	270	0.00	30.198 
06:45	14.3	14.3	14.3	71	6.6	2	5	270	0.00	30.201 
06:50	14.3	14.3	14.3	71	6.6	2	4	248	0.00	30.201 
06:55	14.1	14.1	14.1	71	6.5	2	5	248	0.00	30.201 
07:00	14.1	14.1	14.1	72	6.8	2	5	248	0.00	30.201 
07:05	14.1	14.1	14.1	72	6.8	3	6	248	0.00	30.201 
07:10	14.0	14.0	14.0	72	6.7	2	5	248	0.00	30.201 
07:15	14.0	14.0	14.0	72	6.7	1	4	292	0.00	30.210 
07:20	14.0	14.0	14.0	72	6.7	2	5	248	0.00	30.210 
07:25	14.1	14.1	14.1	73	7.1	2	4	248	0.00	30.210 
07:30	14.1	14.1	14.1	73	7.1	3	5	270	0.00	30.210 
07:35	14.3	14.3	14.3	73	7.3	2	5	270	0.00	30.210 
07:40	14.4	14.4	14.4	73	7.4	2	6	270	0.00	30.210 
07:45	14.4	14.4	14.4	73	7.4	2	4	248	0.00	30.218 
07:50	14.6	14.6	14.6	73	7.5	2	3	248	0.00	30.218 
07:55	14.6	14.6	14.6	73	7.5	2	5	270	0.00	30.218 
08:00	14.6	14.6	14.6	73	7.5	2	5	248	0.00	30.222 
08:05	14.6	14.6	14.6	72	7.2	2	6	248	0.00	30.222 
08:10	14.6	14.6	14.6	72	7.2	2	5	248	0.00	30.222 
08:15	14.8	14.8	14.8	72	7.4	2	5	270	0.00	30.229 
08:20	14.6	14.6	14.6	72	7.2	2	5	248	0.00	30.229 
08:25	14.6	14.6	14.6	72	7.2	2	4	248	0.00	30.229 
08:30	14.3	14.3	14.3	72	7.0	2	4	270	0.00	30.230 
08:35	14.3	14.3	14.3	72	7.0	2	4	248	0.00	30.230 
08:40	14.4	14.4	14.4	73	7.4	1	4	248	0.00	30.230 
08:45	14.4	14.4	14.4	73	7.4	2	4	248	0.00	30.239 
08:50	14.4	14.4	14.4	72	7.1	2	5	248	0.00	30.239 
08:55	14.6	14.6	14.6	73	7.5	2	6	248	0.00	30.239 
09:00	14.8	14.8	14.8	73	7.7	1	3	248	0.00	30.240 
09:05	14.8	14.8	14.8	72	7.4	2	6	248	0.00	30.240 
09:10	14.9	14.9	14.9	72	7.5	2	4	248	0.00	30.240 
09:15	15.1	15.1	15.1	72	7.7	2	5	248	0.00	30.244 
09:20	15.4	15.4	15.4	73	8.3	1	5	270	0.00	30.244 
09:25	15.6	15.6	15.6	72	8.2	2	6	270	0.00	30.244 
09:30	15.7	15.7	15.7	72	8.3	2	5	248	0.00	30.241 
09:35	15.9	15.9	15.9	72	8.5	2	5	248	0.00	30.241 
09:40	16.4	16.4	16.4	72	9.0	2	5	248	0.00	30.241 
09:45	16.5	16.5	16.5	71	8.8	3	7	248	0.00	30.236 
09:50	16.7	16.7	16.7	71	9.0	3	10	248	0.00	30.236 
09:55	16.9	16.9	16.9	71	9.2	2	6	248	0.00	30.236 
10:00	17.0	17.0	17.0	71	9.2	2	4	270	0.00	30.244 
10:05	17.2	17.2	17.2	71	9.4	1	4	270	0.00	30.244 
10:10	17.5	17.5	17.5	71	9.7	2	4	270	0.00	30.244 
10:15	17.3	17.3	17.3	70	9.2	3	5	248	0.00	30.243 
10:20	17.3	17.3	17.3	71	9.5	2	7	270	0.00	30.243 
10:25	17.3	17.3	17.3	71	9.5	3	7	248	0.00	30.243 
10:30	17.5	17.5	17.5	71	9.7	3	9	248	0.00	30.248 
10:35	17.5	17.5	17.5	71	9.7	2	4	270	0.00	30.248 
10:40	17.7	17.7	17.7	71	9.9	2	5	248	0.00	30.248 
10:45	17.7	17.7	17.7	71	9.9	2	5	248	0.00	30.253 
10:50	18.0	18.0	18.0	71	10.2	2	4	248	0.00	30.253 
10:55	17.8	17.8	17.8	71	10.0	3	6	270	0.00	30.253 
11:00	18.0	18.0	18.0	71	10.2	3	5	248	0.00	30.259 
11:05	18.1	18.1	18.1	71	10.3	2	6	248	0.00	30.259 
11:10	18.6	18.6	18.6	71	10.8	2	5	248	0.00	30.259 
11:15	19.1	19.1	19.1	71	11.3	1	4	248	0.00	30.263 
11:20	19.4	19.4	19.4	70	11.2	2	5	248	0.00	30.263 
11:25	19.7	19.7	19.7	69	11.2	2	4	248	0.00	30.263 
11:30	19.9	19.9	19.9	69	11.4	2	5	248	0.00	30.264 
11:35	20.0	20.0	20.0	68	11.2	3	6	248	0.00	30.264 
11:40	20.3	20.3	20.3	69	11.8	2	4	248	0.00	30.264 
11:45	20.5	20.5	20.5	67	11.3	3	5	270	0.00	30.264 
11:50	20.5	20.5	20.5	67	11.3	2	5	270	0.00	30.264 
11:55	20.8	20.8	20.8	67	11.6	3	6	248	0.00	30.264 
12:00	21.0	21.0	21.0	67	11.8	2	4	248	0.00	30.271 
12:05	20.8	20.8	20.8	65	10.9	3	9	248	0.00	30.271 
12:10	21.1	21.1	21.1	66	11.5	3	7	248	0.00	30.271 
12:15	21.1	21.1	21.1	65	11.2	3	6	248	0.00	30.272 
12:20	21.1	21.1	21.1	65	11.2	3	6	248	0.00	30.272 
12:25	21.3	21.3	21.3	66	11.7	2	5	248	0.00	30.272 
12:30	21.4	21.4	21.4	66	11.8	2	5	248	0.00	30.272 
12:35	21.6	21.6	21.6	66	12.0	2	5	248	0.00	30.272 
12:40	21.8	21.8	21.8	66	12.2	3	6	248	0.00	30.272 
12:45	21.9	21.9	21.9	65	12.0	2	7	248	0.00	30.264 
12:50	21.9	21.9	21.9	66	12.3	2	5	248	0.00	30.264 
12:55	21.8	21.8	21.8	65	11.9	2	4	292	0.00	30.264 
13:00	21.9	21.9	21.9	66	12.3	2	6	248	0.00	30.258 
13:05	21.9	21.9	21.9	65	12.0	2	5	270	0.00	30.258 
13:10	21.9	21.9	21.9	65	12.0	2	4	270	0.00	30.258 
13:15	22.1	22.1	22.1	64	11.8	2	5	270	0.00	30.258 
13:20	22.1	22.1	22.1	64	11.8	2	5	248	0.00	30.258 
13:25	22.2	22.2	22.2	65	12.3	2	5	270	0.00	30.258 
13:30	22.2	22.2	22.2	65	12.3	2	7	270	0.00	30.258 
13:35	21.9	21.9	21.9	63	11.3	3	7	315	0.00	30.258 
13:40	21.9	21.9	21.9	64	11.6	3	6	270	0.00	30.258 
13:45	22.1	22.1	22.1	65	12.2	2	3	270	0.00	30.257 
13:50	22.4	22.4	22.4	65	12.4	2	5	248	0.00	30.257 
13:55	22.4	22.4	22.4	64	12.1	2	5	248	0.00	30.257 
14:00	22.2	22.2	22.2	64	11.9	3	5	248	0.00	30.256 
14:05	22.2	22.2	22.2	64	11.9	2	5	248	0.00	30.256 
14:10	22.2	22.2	22.2	65	12.3	2	6	292	0.00	30.256 
14:15	22.4	22.4	22.4	65	12.4	3	6	248	0.00	30.259 
14:20	22.5	22.5	22.5	65	12.5	2	5	270	0.00	30.259 
14:25	22.5	22.5	22.5	64	12.2	3	7	270	0.00	30.259 
14:30	22.5	22.5	22.5	64	12.2	3	6	270	0.00	30.260 
14:35	22.7	22.7	22.7	64	12.4	3	7	248	0.00	30.260 
14:40	22.7	22.7	22.7	64	12.4	3	7	248	0.00	30.260 
14:45	22.7	22.7	22.7	63	12.0	3	6	248	0.00	30.269 
14:50	22.7	22.7	22.7	64	12.4	3	6	248	0.00	30.269 
14:55	22.7	22.7	22.7	65	12.7	3	5	270	0.00	30.269 
15:00	22.7	22.7	22.7	64	12.4	3	6	270	0.00	30.274 
15:05	22.7	22.7	22.7	64	12.4	3	5	270	0.00	30.274 
15:10	23.0	23.0	23.0	64	12.7	2	4	248	0.00	30.274 
15:15	23.0	23.0	23.0	63	12.3	3	5	270	0.00	30.285 
15:20	23.2	23.2	23.2	63	12.5	2	4	270	0.00	30.285 
15:25	23.2	23.2	23.2	63	12.5	3	5	248	0.00	30.285 
15:30	23.2	23.2	23.2	63	12.5	3	7	248	0.00	30.288 
15:35	23.3	23.3	23.3	64	13.0	2	5	270	0.00	30.288 
15:40	23.5	23.5	23.5	63	12.8	2	7	248	0.00	30.288 
15:45	23.5	23.5	23.5	62	12.4	3	10	270	0.00	30.286 
15:50	23.5	23.5	23.5	62	12.4	3	6	270	0.00	30.286 
15:55	23.3	23.3	23.3	62	12.2	3	10	292	0.00	30.286 
16:00	23.2	23.2	23.2	63	12.5	3	6	248	0.00	30.292 
16:05	23.3	23.3	23.3	64	13.0	2	6	292	0.00	30.292 
16:10	23.2	23.2	23.2	64	12.9	3	5	270	0.00	30.292 
16:15	23.2	23.2	23.2	64	12.9	3	5	270	0.00	30.288 
16:20	23.3	23.3	23.3	64	13.0	3	6	315	0.00	30.288 
16:25	23.2	23.2	23.2	64	12.9	3	6	248	0.00	30.288 
16:30	23.2	23.2	23.2	65	13.2	2	5	292	0.00	30.289 
16:35	23.2	23.2	23.2	65	13.2	2	5	315	0.00	30.289 
16:40	23.0	23.0	23.0	65	13.0	2	5	248	0.00	30.289 
16:45	23.0	23.0	23.0	66	13.4	2	4	248	0.00	30.291 
16:50	22.9	22.9	22.9	66	13.3	2	5	292	0.00	30.291 
16:55	22.9	22.9	22.9	66	13.3	2	5	292	0.00	30.291 
17:00	22.9	22.9	22.9	67	13.6	2	7	248	0.00	30.289 
17:05	22.9	22.9	22.9	67	13.6	2	5	292	0.00	30.289 
17:10	22.7	22.7	22.7	67	13.4	3	5	270	0.00	30.289 
17:15	22.5	22.5	22.5	67	13.2	3	5	270	0.00	30.289 
17:20	22.5	22.5	22.5	68	13.6	1	3	315	0.00	30.289 
17:25	22.5	22.5	22.5	68	13.6	2	4	270	0.00	30.289 
17:30	22.5	22.5	22.5	68	13.6	1	5	270	0.00	30.287 
17:35	22.5	22.5	22.5	68	13.6	2	5	270	0.00	30.287 
17:40	22.5	22.5	22.5	68	13.6	2	6	270	0.00	30.287 
17:45	22.5	22.5	22.5	66	12.9	2	7	292	0.00	30.285 
17:50	22.5	22.5	22.5	66	12.9	2	5	0	0.00	30.285 
17:55	22.5	22.5	22.5	66	12.9	2	7	338	0.00	30.285 
18:00	22.5	22.5	22.5	67	13.2	1	5	270	0.00	30.295 
18:05	22.5	22.5	22.5	68	13.6	2	5	270	0.00	30.295 
18:10	22.4	22.4	22.4	68	13.5	2	7	315	0.00	30.295 
18:15	22.4	22.4	22.4	68	13.5	2	6	315	0.00	30.303 
18:20	22.4	22.4	22.4	67	13.1	3	12	292	0.00	30.303 
18:25	22.4	22.4	22.4	67	13.1	3	7	248	0.00	30.303 
18:30	22.4	22.4	22.4	67	13.1	3	7	338	0.00	30.313 
18:35	22.4	22.4	22.4	68	13.5	2	4	292	0.00	30.313 
18:40	22.4	22.4	22.4	69	13.8	1	4	338	0.00	30.313 
18:45	22.4	22.4	22.4	71	14.4	1	3	338	0.00	30.319 
18:50	22.4	22.4	22.4	72	14.8	1	4	315	0.00	30.319 
18:55	22.4	22.4	22.4	72	14.8	1	3	315	0.00	30.319 
19:00	22.2	22.2	22.2	72	14.6	1	4	315	0.00	30.322 
19:05	22.2	22.2	22.2	72	14.6	2	5	292	0.00	30.322 
19:10	22.2	22.2	22.2	71	14.3	2	7	315	0.00	30.322 
19:15	22.2	22.2	22.2	70	13.9	1	3	270	0.00	30.322 
19:20	22.2	22.2	22.2	70	13.9	1	3	270	0.00	30.322 
19:25	22.2	22.2	22.2	69	13.6	2	5	338	0.00	30.322 
19:30	22.4	22.4	22.4	69	13.8	0	2	315	0.00	30.320 
19:35	22.4	22.4	22.4	70	14.1	1	3	270	0.00	30.320 
19:40	22.4	22.4	22.4	70	14.1	2	6	270	0.00	30.320 
19:45	22.4	22.4	22.4	69	13.8	2	6	270	0.00	30.326 
19:50	22.4	22.4	22.4	69	13.8	2	5	292	0.00	30.326 
19:55	22.4	22.4	22.4	69	13.8	2	6	315	0.00	30.326 
20:00	22.4	22.4	22.4	69	13.8	1	4	270	0.00	30.327 
20:05	22.4	22.4	22.4	69	13.8	1	5	315	0.00	30.327 
20:10	22.4	22.4	22.4	69	13.8	2	4	338	0.00	30.327 
20:15	22.5	22.5	22.5	69	13.9	1	4	292	0.00	30.327 
20:20	22.5	22.5	22.5	69	13.9	1	4	338	0.00	30.327 
20:25	22.5	22.5	22.5	69	13.9	2	4	270	0.00	30.327 
20:30	22.5	22.5	22.5	69	13.9	1	3	315	0.00	30.330 
20:35	22.5	22.5	22.5	69	13.9	2	6	315	0.00	30.330 
20:40	22.5	22.5	22.5	69	13.9	1	4	338	0.00	30.330 
20:45	22.5	22.5	22.5	69	13.9	1	4	338	0.00	30.328 
20:50	22.5	22.5	22.5	68	13.6	1	6	270	0.00	30.328 
20:55	22.5	22.5	22.5	68	13.6	1	3	292	0.00	30.328 
21:00	22.5	22.5	22.5	69	13.9	1	3	292	0.00	30.325 
21:05	22.5	22.5	22.5	69	13.9	1	6	315	0.00	30.325 
21:10	22.5	22.5	22.5	69	13.9	2	6	22	0.00	30.325 
21:15	22.5	22.5	22.5	69	13.9	2	6	292	0.00	30.325 
21:20	22.5	22.5	22.5	69	13.9	1	5	315	0.00	30.325 
21:25	22.5	22.5	22.5	69	13.9	1	6	292	0.00	30.325 
21:30	22.5	22.5	22.5	69	13.9	2	5	338	0.00	30.322 
21:35	22.5	22.5	22.5	69	13.9	1	3	338	0.00	30.322 
21:40	22.5	22.5	22.5	69	13.9	1	4	292	0.00	30.322 
21:45	22.5	22.5	22.5	70	14.2	1	6	338	0.00	30.324 
21:50	22.5	22.5	22.5	70	14.2	1	6	338	0.00	30.324 
21:55	22.5	22.5	22.5	70	14.2	2	5	338	0.00	30.324 
22:00	22.5	22.5	22.5	69	13.9	2	7	270	0.00	30.325 
22:05	22.5	22.5	22.5	69	13.9	1	4	270	0.00	30.325 
22:10	22.5	22.5	22.5	69	13.9	1	3	315	0.00	30.325 
22:15	22.5	22.5	22.5	69	13.9	1	4	0	0.00	30.322 
22:20	22.5	22.5	22.5	70	14.2	1	4	0	0.00	30.322 
22:25	22.5	22.5	22.5	70	14.2	1	4	315	0.00	30.322 
22:30	22.4	22.4	22.4	70	14.1	1	4	338	0.00	30.316 
22:35	22.4	22.4	22.4	69	13.8	1	5	270	0.00	30.316 
22:40	22.4	22.4	22.4	70	14.1	1	4	315	0.00	30.316 
22:45	22.2	22.2	22.2	71	14.3	0	1	338	0.00	30.319 
22:50	22.1	22.1	22.1	72	14.5	1	3	338	0.00	30.319 
22:55	21.9	21.9	21.9	71	14.0	0	3	338	0.00	30.319 
23:00	21.8	21.8	21.8	71	13.9	1	3	338	0.00	30.319 
23:05	21.8	21.8	21.8	70	13.5	0	4	315	0.00	30.319 
23:10	21.8	21.8	21.8	70	13.5	1	3	292	0.00	30.319 
23:15	21.6	21.6	21.6	70	13.4	1	3	338	0.00	30.328 
23:20	21.6	21.6	21.6	71	13.7	0	2	315	0.00	30.328 
23:25	21.6	21.6	21.6	71	13.7	0	3	315	0.00	30.328 
23:30	21.6	21.6	21.6	70	13.4	1	4	315	0.00	30.316 
23:35	21.6	21.6	21.6	70	13.4	1	3	315	0.00	30.316 
23:40	21.4	21.4	21.4	69	12.8	1	4	270	0.00	30.316 
23:45	21.4	21.4	21.4	68	12.5	1	4	270	0.00	30.315 
23:50	21.4	21.4	21.4	68	12.5	1	2	315	0.00	30.315 
23:55	21.4	21.4	21.4	67	12.2	1	5	315	0.00	30.315 

CoCoRaHS
IN-AL-39
A2 Web Hosting
Creative Commons License
GoDaddy
search engine by freefind advanced

loaded 2018-11-15 05:36:31 • last modified 2010-11-18 10:43:29
Privacy PolicyDisclaimer
• wx.awcolley.com is powered by PmWiki v.2002016 •
• all content (unless otherwise noted) © 2018 A W Colley